Nearby METAR Reports

 

KSJC - San Jose, California, USA
Distance from station: NE 9mi, 14km
Updated: Wed, 18-May-2022 2:53am PDT
Clear
Clear
 Wind from calm
Wind: Calm
Temperature: 54°F , 12°C
Dew Point: 46°F , 8°C
Humidity: 77%
Barometer: 30.06 inHg , 1017.9 hPa
Clouds: Clear
Visibility: 10 miles , 16 km
2022/05/18 09:53 KSJC 180953Z AUTO 00000KT 10SM CLR 12/08 A3006 RMK AO2 SLP178 T01170078
KRHV - San Jose/Reid, California, USA
Distance from station: ENE 12mi, 19km
Updated: Tue, 17-May-2022 9:55pm PDT
NOT Current
Clear
Clear
 Wind from NNW
Wind: NNW 6 mph , 9 km/h
Temperature: 57°F , 14°C
Dew Point: 46°F , 8°C
Humidity: 67%
Barometer: 30.07 inHg , 1018.3 hPa
Clouds: Clear
Visibility: 10 miles , 16 km
2022/05/18 04:55 KRHV 180455Z 33005KT 10SM SKC 14/08 A3007 RMK LAST
 
KPAO - Palo Alto, California, USA
Distance from station: NNW 14mi, 23km
Updated: Tue, 17-May-2022 8:47pm PDT
NOT Current
Clear
Clear
 Wind from NW
Wind: NW 10 mph , 17 km/h
Temperature: 57°F , 14°C
Dew Point: 45°F , 7°C
Humidity: 63%
Barometer: 30.04 inHg , 1017.3 hPa
Clouds: Clear
Visibility: 10 miles , 16 km
2022/05/18 03:47 KPAO 180347Z 31009KT 10SM SKC 14/07 A3004 RMK LAST
KOAK - Oakland, California, USA
Distance from station: NNW 31mi, 50km
Updated: Wed, 18-May-2022 2:53am PDT
Few Clouds
Few Clouds
 Wind from SW
Wind: SW 12 mph , 19 km/h
Temperature: 54°F , 12°C
Dew Point: 46°F , 8°C
Humidity: 77%
Barometer: 30.06 inHg , 1017.9 hPa
Clouds: Few Clouds
Visibility: 10 miles , 16 km
Cloud details: Few Clouds 20000 ft
2022/05/18 09:53 KOAK 180953Z 22010KT 10SM FEW200 12/08 A3006 RMK AO2 SLP179 T01170083
 
KSQL - San Carlos Airpo, California, USA
Distance from station: NW 21mi, 34km
Updated: Wed, 18-May-2022 2:55am PDT
Clear
Clear
 Wind from calm
Wind: Calm
Temperature: 54°F , 12°C
Dew Point: 45°F , 7°C
Humidity: 72%
Barometer: 30.07 inHg , 1018.3 hPa
Clouds: Clear
Visibility: 10 miles , 16 km
2022/05/18 09:55 KSQL 180955Z AUTO 00000KT 10SM CLR 12/07 A3007 RMK AO2
KSFO - San Francisco, California, USA
Distance from station: NW 30mi, 49km
Updated: Wed, 18-May-2022 2:56am PDT
Clear
Clear
 Wind from WNW
Wind: WNW 10 mph , 17 km/h
Temperature: 52°F , 11°C
Dew Point: 45°F , 7°C
Humidity: 77%
Barometer: 30.05 inHg , 1017.6 hPa
Clouds: Clear
Visibility: 10 miles , 16 km
2022/05/18 09:56 KSFO 180956Z 29009KT 10SM CLR 11/07 A3005 RMK AO2 SLP177 T01110067
 
KE16 - San Martin, California, USA
Distance from station: ESE 27mi, 43km
Updated: Wed, 18-May-2022 2:55am PDT
Partly cloudy
Partly cloudy
 Wind from calm
Wind: Calm
Temperature: 50°F , 10°C
Dew Point: 45°F , 7°C
Humidity: 82%
Barometer: 30.08 inHg , 1018.6 hPa
Clouds: Partly cloudy
Visibility: 9 miles , 14 km
Cloud details: Partly cloudy 1700 ft
2022/05/18 09:55 KE16 180955Z AUTO 00000KT 9SM SCT017 10/07 A3008 RMK AO2 PWINO PNO
KWVI - Watsonville, California, USA
Distance from station: SSE 27mi, 44km
Updated: Wed, 18-May-2022 2:53am PDT
Mist, Overcast
Mist, Overcast
 Wind from calm
Wind: Calm
Temperature: 48°F , 9°C
Dew Point: 48°F , 9°C
Humidity: 100%
Barometer: 30.07 inHg , 1018.3 hPa
Summary: Mist
Clouds: Overcast
Visibility: 5 miles , 8 km
Cloud details: Overcast 400 ft
2022/05/18 09:53 KWVI 180953Z AUTO 00000KT 5SM BR OVC004 09/09 A3007 RMK AO2 SLP183 T00940089
 
KHAF - Half Moon Bay, California, USA
Distance from station: WNW 31mi, 50km
Updated: Wed, 18-May-2022 2:55am PDT
Mist, Clear
Mist, Clear
 Wind from calm
Wind: Calm
Temperature: 43°F , 6°C
Dew Point: 43°F , 6°C
Humidity: 100%
Barometer: 30.09 inHg , 1019 hPa
Summary: Mist
Clouds: Clear
Visibility: 4 miles , 6 km
2022/05/18 09:55 KHAF 180955Z AUTO 00000KT 4SM BR CLR 06/06 A3009 RMK AO2
KHWD - Hayward, California, USA
Distance from station: N 28mi, 44km
Updated: Wed, 18-May-2022 2:54am PDT
Clear
Clear
 Wind from calm
Wind: Calm
Temperature: 54°F , 12°C
Dew Point: 46°F , 8°C
Humidity: 77%
Barometer: 30.05 inHg , 1017.6 hPa
Clouds: Clear
Visibility: 9 miles , 14 km
2022/05/18 09:54 KHWD 180954Z 00000KT 9SM CLR 12/08 A3005 RMK AO2 SLP187 T01170078
 
KLVK - Livermore, California, USA
Distance from station: NNE 31mi, 51km
Updated: Wed, 18-May-2022 2:53am PDT
Clear
Clear
 Wind from WNW
Wind: WNW 5 mph , 7 km/h
Temperature: 52°F , 11°C
Dew Point: 45°F , 7°C
Humidity: 77%
Barometer: 30.04 inHg , 1017.3 hPa
Clouds: Clear
Visibility: 10 miles , 16 km
2022/05/18 09:53 KLVK 180953Z AUTO 29004KT 10SM CLR 11/07 A3004 RMK AO2 SLP170 T01060072